Time;durP1;ratioP1;P1;durP2;ratioP2;P2;SDS_P1;SDS_P2;PMS_P1;PMS_P2;Temp;Humidity;BMP_temperature;BMP_pressure;BME280_temperature;BME280_humidity;BME280_pressure;Samples;Min_cycle;Max_cycle;Signal;HPM_P1;HPM_P2
2023/12/23 00:01:11;;;;;;;8.60;2.20;;;4.50;99.90;;;;;;5093249;28;20467;-76
2023/12/23 00:03:39;;;;;;;12.90;3.93;;;4.50;99.90;;;;;;5094619;28;20472;-76
2023/12/23 00:06:10;;;;;;;6.57;2.30;;;4.50;99.90;;;;;;5093260;28;20567;-77
2023/12/23 00:08:38;;;;;;;12.80;2.73;;;4.50;99.90;;;;;;5093263;28;20468;-76
2023/12/23 00:11:07;;;;;;;11.43;2.43;;;4.40;99.90;;;;;;5094570;28;20439;-76
2023/12/23 00:13:36;;;;;;;6.07;2.10;;;4.40;99.90;;;;;;5092776;28;20486;-76
2023/12/23 00:16:04;;;;;;;7.43;2.40;;;4.50;99.90;;;;;;5094396;28;20462;-77
2023/12/23 00:18:32;;;;;;;10.17;2.90;;;4.50;99.90;;;;;;5093373;28;20441;-77
2023/12/23 00:21:01;;;;;;;11.23;2.77;;;4.40;99.90;;;;;;5094612;28;20440;-77
2023/12/23 00:23:31;;;;;;;8.90;2.23;;;4.40;99.90;;;;;;5092997;28;20497;-76
2023/12/23 00:25:59;;;;;;;7.33;2.33;;;4.40;99.90;;;;;;5094512;28;20459;-76
2023/12/23 00:28:27;;;;;;;9.80;2.87;;;4.40;99.90;;;;;;5093063;28;20478;-77
2023/12/23 00:30:56;;;;;;;13.20;3.20;;;4.40;99.90;;;;;;5093266;28;20550;-76
2023/12/23 00:33:25;;;;;;;9.23;2.30;;;4.40;99.90;;;;;;5093912;28;20417;-77
2023/12/23 00:35:54;;;;;;;8.97;2.03;;;4.40;99.90;;;;;;5092839;28;20465;-77
2023/12/23 00:38:22;;;;;;;9.83;2.53;;;4.30;99.90;;;;;;5094077;28;20482;-77
2023/12/23 00:40:52;;;;;;;7.37;2.17;;;4.30;99.90;;;;;;5092719;28;20452;-77
2023/12/23 00:43:20;;;;;;;10.27;2.40;;;4.30;99.90;;;;;;5094078;28;20464;-77
2023/12/23 00:45:49;;;;;;;10.33;3.00;;;4.30;99.90;;;;;;5092685;28;20467;-76
2023/12/23 00:48:18;;;;;;;7.00;2.20;;;4.30;99.90;;;;;;5092604;28;20816;-76
2023/12/23 00:50:46;;;;;;;11.03;3.60;;;4.30;99.90;;;;;;5092525;28;20447;-77
2023/12/23 00:53:14;;;;;;;10.03;3.50;;;4.30;99.90;;;;;;5093818;28;20523;-77
2023/12/23 00:55:43;;;;;;;11.13;3.73;;;4.30;99.90;;;;;;5092469;28;21000;-76
2023/12/23 00:58:12;;;;;;;13.60;3.00;;;4.30;99.90;;;;;;5092450;28;20480;-77
2023/12/23 01:00:41;;;;;;;7.97;2.47;;;4.30;99.90;;;;;;5092392;28;20535;-76
2023/12/23 01:03:08;;;;;;;10.63;2.87;;;4.30;99.90;;;;;;5092280;28;20464;-77
2023/12/23 01:05:36;;;;;;;14.07;2.80;;;4.30;99.90;;;;;;5092273;28;20468;-77
2023/12/23 01:08:05;;;;;;;12.23;3.40;;;4.30;99.90;;;;;;5092295;28;20531;-77
2023/12/23 01:10:33;;;;;;;11.70;3.70;;;4.30;99.90;;;;;;5092214;28;20449;-77
2023/12/23 01:13:02;;;;;;;10.37;3.20;;;4.30;99.90;;;;;;5092338;28;20978;-76
2023/12/23 01:15:31;;;;;;;11.10;3.27;;;4.30;99.90;;;;;;5093511;28;20513;-77
2023/12/23 01:18:00;;;;;;;10.30;2.97;;;4.30;99.90;;;;;;5093664;28;20921;-76
2023/12/23 01:20:28;;;;;;;9.40;2.60;;;4.30;99.90;;;;;;5092137;28;20505;-76
2023/12/23 01:22:56;;;;;;;16.60;4.40;;;4.30;99.90;;;;;;5091975;28;20485;-76
2023/12/23 01:25:24;;;;;;;13.07;2.97;;;4.30;99.90;;;;;;5092017;28;20464;-76
2023/12/23 01:27:52;;;;;;;8.13;2.90;;;4.40;99.90;;;;;;5092067;28;20525;-77
2023/12/23 01:30:22;;;;;;;9.33;3.27;;;4.40;99.90;;;;;;5092060;28;20498;-76
2023/12/23 01:32:52;;;;;;;9.10;3.13;;;4.40;99.90;;;;;;5092057;28;20436;-76
2023/12/23 01:35:20;;;;;;;12.80;3.77;;;4.40;99.90;;;;;;5091891;28;20470;-77
2023/12/23 01:37:49;;;;;;;8.03;3.23;;;4.40;99.90;;;;;;5092020;28;20545;-76
2023/12/23 01:40:18;;;;;;;11.17;3.60;;;4.40;99.90;;;;;;5091941;28;20448;-76
2023/12/23 01:42:47;;;;;;;9.83;2.80;;;4.40;99.90;;;;;;5091814;28;20546;-76
2023/12/23 01:45:15;;;;;;;7.03;2.50;;;4.40;99.90;;;;;;5092728;28;20537;-76
2023/12/23 01:47:45;;;;;;;9.47;3.50;;;4.40;99.90;;;;;;5096215;28;20702;-77
2023/12/23 01:50:17;;;;;;;13.17;3.27;;;4.40;99.90;;;;;;5096093;28;20444;-77
2023/12/23 01:52:46;;;;;;;9.87;2.93;;;4.40;99.90;;;;;;5096012;28;20448;-76
2023/12/23 01:55:15;;;;;;;13.57;3.17;;;4.40;99.90;;;;;;5095826;28;20464;-75
2023/12/23 01:57:44;;;;;;;10.20;3.87;;;4.50;99.90;;;;;;5097202;28;20464;-77
2023/12/23 02:00:13;;;;;;;15.00;4.23;;;4.50;99.90;;;;;;5095805;28;20452;-77
2023/12/23 02:02:41;;;;;;;14.00;3.30;;;4.50;99.90;;;;;;5095757;28;20539;-77
2023/12/23 02:05:10;;;;;;;11.17;3.40;;;4.50;99.90;;;;;;5095721;28;20468;-77
2023/12/23 02:07:42;;;;;;;14.13;4.03;;;4.60;99.90;;;;;;5095746;28;21012;-76
2023/12/23 02:10:10;;;;;;;9.53;3.10;;;4.60;99.90;;;;;;5095697;28;20486;-76
2023/12/23 02:12:47;;;;;;;13.77;2.90;;;4.60;99.90;;;;;;5097474;28;20432;-76
2023/12/23 02:15:15;;;;;;;10.10;5.17;;;4.60;99.90;;;;;;5095581;28;20464;-77
2023/12/23 02:17:44;;;;;;;10.60;2.93;;;4.60;99.90;;;;;;5096895;28;20485;-75
2023/12/23 02:20:13;;;;;;;9.80;3.70;;;4.60;99.90;;;;;;5097038;28;20443;-77
2023/12/23 02:22:43;;;;;;;11.93;3.30;;;4.70;99.90;;;;;;5095421;28;20476;-76
2023/12/23 02:25:11;;;;;;;7.60;2.70;;;4.70;99.90;;;;;;5096518;28;20812;-76
2023/12/23 02:27:45;;;;;;;10.00;3.00;;;4.70;99.90;;;;;;5095325;28;21008;-76
2023/12/23 02:30:16;;;;;;;11.80;3.30;;;4.70;99.90;;;;;;5095326;28;20471;-77
2023/12/23 02:32:45;;;;;;;6.53;2.53;;;4.70;99.90;;;;;;5095229;28;20444;-77
2023/12/23 02:35:14;;;;;;;7.30;2.77;;;4.70;99.90;;;;;;5096279;28;20535;-77
2023/12/23 02:37:44;;;;;;;10.33;2.50;;;4.70;99.90;;;;;;5095113;28;20440;-76
2023/12/23 02:40:13;;;;;;;10.60;2.60;;;4.70;99.90;;;;;;5095049;28;20448;-77
2023/12/23 02:42:41;;;;;;;8.30;2.93;;;4.70;99.90;;;;;;5095023;28;20469;-76
2023/12/23 02:45:09;;;;;;;13.30;3.00;;;4.70;99.90;;;;;;5094802;28;20980;-77
2023/12/23 02:47:38;;;;;;;14.27;3.20;;;4.70;99.90;;;;;;5095004;28;20472;-77
2023/12/23 02:50:07;;;;;;;8.93;2.80;;;4.80;99.90;;;;;;5094929;28;20534;-76
2023/12/23 02:52:37;;;;;;;9.50;3.17;;;4.80;99.90;;;;;;5094886;28;20440;-76
2023/12/23 02:55:08;;;;;;;10.70;3.03;;;4.70;99.90;;;;;;5094783;28;20440;-77
2023/12/23 02:57:36;;;;;;;8.53;3.30;;;4.80;99.90;;;;;;5094771;28;20440;-77
2023/12/23 03:00:05;;;;;;;8.73;4.03;;;4.80;99.90;;;;;;5094864;28;20592;-77
2023/12/23 03:02:33;;;;;;;11.60;3.10;;;4.80;99.90;;;;;;5094747;28;20513;-77
2023/12/23 03:05:02;;;;;;;14.83;3.50;;;4.70;99.90;;;;;;5096470;28;20432;-77
2023/12/23 03:07:32;;;;;;;10.83;3.93;;;4.70;99.90;;;;;;5094829;28;20540;-77
2023/12/23 03:10:02;;;;;;;11.60;4.30;;;4.80;99.90;;;;;;5095956;28;20547;-77
2023/12/23 03:12:32;;;;;;;10.60;2.77;;;4.70;99.90;;;;;;5094628;28;20535;-77
2023/12/23 03:15:00;;;;;;;13.70;2.90;;;4.70;99.90;;;;;;5094471;28;20472;-77
2023/12/23 03:17:29;;;;;;;10.23;3.00;;;4.70;99.90;;;;;;5094453;28;20499;-77
2023/12/23 03:19:57;;;;;;;13.80;3.30;;;4.70;99.90;;;;;;5094376;28;20444;-77
2023/12/23 03:22:25;;;;;;;15.63;3.50;;;4.70;99.90;;;;;;5095895;28;20428;-76
2023/12/23 03:24:53;;;;;;;12.00;3.20;;;4.70;99.90;;;;;;5094173;28;20550;-77
2023/12/23 03:27:21;;;;;;;11.80;3.00;;;4.70;99.90;;;;;;5095459;28;20476;-77
2023/12/23 03:29:51;;;;;;;11.50;4.17;;;4.70;99.90;;;;;;5094141;28;20510;-77
2023/12/23 03:32:19;;;;;;;11.63;3.60;;;4.70;99.90;;;;;;5094087;28;20444;-77
2023/12/23 03:34:48;;;;;;;9.03;3.53;;;4.70;99.90;;;;;;5093982;28;20968;-76
2023/12/23 03:37:16;;;;;;;10.17;2.83;;;4.70;99.90;;;;;;5094009;28;20448;-77
2023/12/23 03:39:45;;;;;;;13.43;3.40;;;4.60;99.90;;;;;;5094008;28;20528;-77
2023/12/23 03:42:13;;;;;;;15.17;2.90;;;4.70;99.90;;;;;;5095276;28;20485;-76
2023/12/23 03:44:41;;;;;;;9.70;2.93;;;4.60;99.90;;;;;;5093898;28;20514;-76
2023/12/23 03:47:11;;;;;;;16.10;3.70;;;4.70;99.90;;;;;;5093947;28;20472;-77
2023/12/23 03:49:39;;;;;;;12.67;2.83;;;4.70;99.90;;;;;;5093847;28;20448;-76
2023/12/23 03:52:08;;;;;;;10.57;3.03;;;4.70;99.90;;;;;;5093834;28;20446;-77
2023/12/23 03:54:36;;;;;;;10.87;2.77;;;4.70;99.90;;;;;;5093649;28;20965;-77
2023/12/23 03:57:05;;;;;;;20.27;4.37;;;4.70;99.90;;;;;;5093579;28;20502;-77
2023/12/23 03:59:33;;;;;;;10.57;3.93;;;4.70;99.90;;;;;;5093980;28;20490;-76
2023/12/23 04:02:01;;;;;;;7.03;3.00;;;4.70;99.90;;;;;;5093438;28;20452;-75
2023/12/23 04:04:31;;;;;;;11.20;3.20;;;4.70;99.90;;;;;;5093674;28;20513;-77
2023/12/23 04:06:59;;;;;;;16.77;3.67;;;4.70;99.90;;;;;;5093326;28;20472;-76
2023/12/23 04:09:27;;;;;;;11.37;3.07;;;4.80;99.90;;;;;;5092822;28;20537;-77
2023/12/23 04:11:56;;;;;;;6.70;2.97;;;4.70;99.90;;;;;;5094223;28;20462;-77
2023/12/23 04:14:24;;;;;;;10.07;3.40;;;4.70;99.90;;;;;;5093324;28;20448;-78
2023/12/23 04:16:53;;;;;;;7.70;2.37;;;4.70;99.90;;;;;;5093332;28;20468;-77
2023/12/23 04:19:21;;;;;;;6.40;2.80;;;4.70;99.90;;;;;;5093312;28;20830;-77
2023/12/23 04:21:51;;;;;;;12.50;2.50;;;4.70;99.90;;;;;;5093398;28;20447;-77
2023/12/23 04:24:20;;;;;;;8.43;2.60;;;4.70;99.90;;;;;;5093052;28;20507;-77
2023/12/23 04:26:48;;;;;;;11.70;2.90;;;4.70;99.90;;;;;;5093004;28;20460;-77
2023/12/23 04:29:17;;;;;;;9.93;2.90;;;4.70;99.90;;;;;;5093204;28;20453;-77
2023/12/23 04:31:46;;;;;;;9.90;2.47;;;4.70;99.90;;;;;;5093009;28;20448;-77
2023/12/23 04:34:14;;;;;;;7.97;2.20;;;4.70;99.90;;;;;;5093456;28;20524;-76
2023/12/23 04:36:43;;;;;;;10.77;2.60;;;4.70;99.90;;;;;;5092801;28;20480;-76
2023/12/23 04:39:13;;;;;;;12.77;3.00;;;4.70;99.90;;;;;;5092838;28;20535;-76
2023/12/23 04:41:46;;;;;;;7.17;2.77;;;4.70;99.90;;;;;;5092739;28;20494;-77
2023/12/23 04:44:16;;;;;;;7.20;2.40;;;4.70;99.90;;;;;;5092687;28;20486;-76
2023/12/23 04:46:47;;;;;;;7.93;2.63;;;4.70;99.90;;;;;;5092446;28;20501;-76
2023/12/23 04:49:15;;;;;;;8.20;2.30;;;4.70;99.90;;;;;;5092803;28;20452;-76
2023/12/23 04:51:44;;;;;;;8.70;2.20;;;4.70;99.90;;;;;;5092897;28;20475;-76
2023/12/23 04:54:14;;;;;;;6.10;1.93;;;4.70;99.90;;;;;;5092580;28;20536;-76
2023/12/23 04:56:42;;;;;;;6.63;2.00;;;4.70;99.90;;;;;;5092493;28;20538;-77
2023/12/23 04:59:10;;;;;;;7.67;3.43;;;4.70;99.90;;;;;;5092746;28;20466;-77
2023/12/23 05:01:39;;;;;;;6.13;1.77;;;4.70;99.90;;;;;;5092488;28;20444;-76
2023/12/23 05:04:07;;;;;;;6.83;3.13;;;4.70;99.90;;;;;;5092420;28;20468;-77
2023/12/23 05:06:35;;;;;;;5.80;2.00;;;4.70;99.90;;;;;;5093692;28;20464;-77
2023/12/23 05:09:05;;;;;;;7.50;2.10;;;4.70;99.90;;;;;;5092391;28;20484;-77
2023/12/23 05:11:35;;;;;;;7.07;1.80;;;4.70;99.90;;;;;;5092344;28;20440;-76
2023/12/23 05:14:03;;;;;;;4.30;1.70;;;4.70;99.90;;;;;;5092560;28;20452;-76
2023/12/23 05:16:31;;;;;;;4.47;2.20;;;4.70;99.90;;;;;;5092223;28;20464;-77
2023/12/23 05:19:00;;;;;;;17.33;3.20;;;4.70;99.90;;;;;;5092146;28;20444;-76
2023/12/23 05:21:29;;;;;;;5.97;2.23;;;4.70;99.90;;;;;;5091649;28;20494;-77
2023/12/23 05:23:58;;;;;;;10.47;3.20;;;4.70;99.90;;;;;;5092156;28;20458;-76
2023/12/23 05:26:26;;;;;;;8.97;2.93;;;4.70;99.90;;;;;;5092283;28;20460;-77
2023/12/23 05:28:55;;;;;;;6.93;2.40;;;4.70;99.90;;;;;;5092364;28;20957;-76
2023/12/23 05:31:24;;;;;;;6.97;2.80;;;4.70;99.90;;;;;;5092382;28;20876;-77
2023/12/23 05:33:55;;;;;;;13.73;3.07;;;4.70;99.90;;;;;;5092182;28;20498;-76
2023/12/23 05:36:23;;;;;;;9.20;2.90;;;4.70;99.90;;;;;;5092056;28;20474;-77
2023/12/23 05:38:51;;;;;;;10.00;2.80;;;4.70;99.90;;;;;;5093227;28;20432;-77
2023/12/23 05:41:20;;;;;;;10.83;4.63;;;4.70;99.90;;;;;;5092275;28;20475;-77
2023/12/23 05:43:48;;;;;;;7.10;2.53;;;4.70;99.90;;;;;;5093349;28;20447;-77
2023/12/23 05:46:18;;;;;;;6.83;2.50;;;4.70;99.90;;;;;;5093054;28;20483;-77
2023/12/23 05:48:46;;;;;;;16.30;3.60;;;4.70;99.90;;;;;;5091915;28;20445;-76
2023/12/23 05:51:14;;;;;;;11.10;3.40;;;4.70;99.90;;;;;;5091929;28;20857;-76
2023/12/23 05:53:43;;;;;;;9.87;2.40;;;4.70;99.90;;;;;;5092168;28;20800;-77
2023/12/23 05:56:11;;;;;;;11.43;2.70;;;4.70;99.90;;;;;;5093214;28;20469;-77
2023/12/23 05:58:39;;;;;;;6.70;3.03;;;4.70;99.90;;;;;;5093150;28;20432;-77
2023/12/23 06:01:08;;;;;;;8.50;2.80;;;4.70;99.90;;;;;;5091773;28;20451;-76
2023/12/23 06:03:38;;;;;;;8.23;2.57;;;4.80;99.90;;;;;;5091794;28;20486;-77
2023/12/23 06:06:06;;;;;;;9.37;2.10;;;4.80;99.90;;;;;;5091607;28;20575;-77
2023/12/23 06:08:35;;;;;;;8.80;2.57;;;4.70;99.90;;;;;;5092024;28;20885;-77
2023/12/23 06:11:03;;;;;;;10.90;3.53;;;4.80;99.90;;;;;;5092977;28;20535;-76
2023/12/23 06:13:33;;;;;;;8.87;2.47;;;4.80;99.90;;;;;;5091771;28;20444;-77
2023/12/23 06:16:06;;;;;;;4.00;1.80;;;4.80;99.90;;;;;;5091625;28;21021;-77
2023/12/23 06:18:35;;;;;;;8.93;2.43;;;4.80;99.90;;;;;;5093106;28;20420;-76
2023/12/23 06:21:05;;;;;;;5.73;2.13;;;4.80;99.90;;;;;;5093074;28;20440;-76
2023/12/23 06:23:33;;;;;;;7.83;2.80;;;4.80;99.90;;;;;;5093554;28;20455;-77
2023/12/23 06:26:01;;;;;;;6.03;2.10;;;4.80;99.90;;;;;;5092781;28;20472;-77
2023/12/23 06:28:29;;;;;;;5.53;2.00;;;4.80;99.90;;;;;;5091606;28;20444;-76
2023/12/23 06:30:58;;;;;;;7.77;2.07;;;4.70;99.90;;;;;;5092298;28;20444;-77
2023/12/23 06:33:26;;;;;;;8.23;2.53;;;4.70;99.90;;;;;;5096852;28;20504;-76
2023/12/23 06:35:55;;;;;;;8.17;1.87;;;4.70;99.90;;;;;;5095160;28;20917;-76
2023/12/23 06:38:24;;;;;;;4.83;1.67;;;4.70;99.90;;;;;;5095197;28;20527;-76
2023/12/23 06:40:52;;;;;;;5.73;1.67;;;4.70;99.90;;;;;;5095120;28;20506;-76
2023/12/23 06:43:21;;;;;;;4.30;1.70;;;4.80;99.90;;;;;;5095262;28;20440;-76
2023/12/23 06:46:10;;;;;;;3.73;1.60;;;4.70;99.90;;;;;;5094807;28;20471;-76
2023/12/23 06:48:38;;;;;;;3.50;1.67;;;4.70;99.90;;;;;;5095281;28;20448;-76
2023/12/23 06:51:08;;;;;;;7.03;1.70;;;4.70;99.90;;;;;;5096152;28;21015;-76
2023/12/23 06:53:37;;;;;;;5.20;1.73;;;4.70;99.90;;;;;;5096667;28;20440;-77
2023/12/23 06:56:06;;;;;;;6.50;1.80;;;4.80;99.90;;;;;;5094384;28;20436;-77
2023/12/23 06:58:35;;;;;;;8.73;2.83;;;4.80;99.90;;;;;;5096123;28;20432;-77
2023/12/23 07:01:04;;;;;;;4.80;1.93;;;4.80;99.90;;;;;;5095082;28;20453;-76
2023/12/23 07:03:33;;;;;;;5.10;1.67;;;4.80;99.90;;;;;;5096000;28;20478;-77
2023/12/23 07:06:01;;;;;;;6.80;1.73;;;4.80;99.90;;;;;;5094475;28;20486;-76
2023/12/23 07:08:29;;;;;;;4.67;2.33;;;4.70;99.90;;;;;;5095957;28;20439;-77
2023/12/23 07:10:59;;;;;;;3.77;1.40;;;4.70;99.90;;;;;;5096041;28;20485;-77
2023/12/23 07:13:27;;;;;;;3.40;1.53;;;4.70;99.90;;;;;;5094688;28;20471;-77
2023/12/23 07:15:56;;;;;;;6.03;1.87;;;4.70;99.90;;;;;;5094518;28;20900;-77
2023/12/23 07:18:24;;;;;;;4.50;1.17;;;4.70;99.90;;;;;;5094654;28;20981;-77
2023/12/23 07:20:54;;;;;;;6.77;1.47;;;4.70;99.90;;;;;;5096209;28;20447;-76
2023/12/23 07:23:22;;;;;;;5.53;1.37;;;4.70;99.90;;;;;;5094319;28;20487;-77
2023/12/23 07:25:50;;;;;;;3.67;1.20;;;4.70;99.90;;;;;;5094208;28;20491;-77
2023/12/23 07:28:20;;;;;;;3.00;1.23;;;4.70;99.90;;;;;;5094624;28;20448;-76
2023/12/23 07:30:48;;;;;;;4.50;1.50;;;4.70;99.90;;;;;;5094393;28;20814;-77
2023/12/23 07:33:16;;;;;;;4.57;1.13;;;4.70;99.90;;;;;;5094187;28;20483;-77
2023/12/23 07:35:45;;;;;;;5.07;1.40;;;4.70;99.90;;;;;;5094357;28;21026;-77
2023/12/23 07:38:13;;;;;;;4.30;1.40;;;4.70;99.90;;;;;;5094075;28;20882;-76
2023/12/23 07:40:42;;;;;;;3.93;1.27;;;4.70;99.90;;;;;;5095209;28;20948;-76
2023/12/23 07:43:10;;;;;;;5.60;1.27;;;4.70;99.90;;;;;;5092917;28;20448;-77
2023/12/23 07:45:40;;;;;;;2.60;0.97;;;4.70;99.90;;;;;;5093591;28;20485;-76
2023/12/23 07:48:09;;;;;;;4.27;1.00;;;4.70;99.90;;;;;;5093863;28;20801;-76
2023/12/23 07:50:37;;;;;;;3.20;1.30;;;4.60;99.90;;;;;;5093755;28;20436;-76
2023/12/23 07:53:05;;;;;;;4.70;1.70;;;4.60;99.90;;;;;;5095251;28;20454;-76
2023/12/23 07:55:34;;;;;;;4.50;2.30;;;4.60;99.90;;;;;;5093679;28;20470;-77
2023/12/23 07:58:02;;;;;;;5.40;2.20;;;4.60;99.90;;;;;;5095205;28;20436;-76
2023/12/23 08:00:31;;;;;;;5.30;2.37;;;4.60;99.90;;;;;;5093683;28;20857;-76
2023/12/23 08:03:01;;;;;;;5.13;1.70;;;4.60;99.90;;;;;;5093886;28;20446;-76
2023/12/23 08:05:31;;;;;;;3.80;1.87;;;4.60;99.90;;;;;;5093517;28;20464;-76
2023/12/23 08:08:00;;;;;;;2.60;1.70;;;4.60;99.90;;;;;;5094872;28;20503;-76
2023/12/23 08:10:28;;;;;;;4.33;2.00;;;4.60;99.90;;;;;;5095055;28;20436;-77
2023/12/23 08:12:56;;;;;;;6.33;2.43;;;4.70;99.90;;;;;;5094965;28;20482;-76
2023/12/23 08:15:25;;;;;;;4.47;1.70;;;4.60;99.90;;;;;;5094881;28;20461;-76
2023/12/23 08:17:53;;;;;;;5.57;1.87;;;4.70;99.90;;;;;;5093327;28;20481;-76
2023/12/23 08:20:22;;;;;;;6.57;2.10;;;4.60;99.90;;;;;;5093272;28;20448;-76
2023/12/23 08:22:51;;;;;;;3.97;2.07;;;4.70;99.90;;;;;;5093325;28;20455;-76
2023/12/23 08:25:20;;;;;;;4.17;1.90;;;4.60;99.90;;;;;;5093327;28;20986;-76
2023/12/23 08:27:48;;;;;;;3.20;1.73;;;4.60;99.90;;;;;;5094411;28;20475;-76
2023/12/23 08:30:17;;;;;;;4.63;2.17;;;4.70;99.90;;;;;;5094640;28;20436;-77
2023/12/23 08:32:45;;;;;;;4.23;1.57;;;4.60;99.90;;;;;;5093441;28;20890;-77
2023/12/23 08:35:14;;;;;;;4.43;2.07;;;4.60;99.90;;;;;;5092911;28;20575;-77
2023/12/23 08:37:44;;;;;;;2.37;1.37;;;4.70;99.90;;;;;;5093000;28;20444;-77
2023/12/23 08:40:12;;;;;;;2.50;1.63;;;4.70;99.90;;;;;;5094270;28;20447;-77
2023/12/23 08:42:40;;;;;;;4.90;2.00;;;4.60;99.90;;;;;;5094103;28;20441;-76
2023/12/23 08:45:09;;;;;;;4.63;1.80;;;4.70;99.90;;;;;;5092684;28;20452;-76
2023/12/23 08:47:37;;;;;;;2.90;1.77;;;4.60;99.90;;;;;;5094225;28;20463;-76
2023/12/23 08:50:07;;;;;;;2.80;1.33;;;4.70;99.90;;;;;;5093928;28;20448;-76
2023/12/23 08:52:35;;;;;;;2.73;1.53;;;4.70;99.90;;;;;;5092575;28;20441;-76
2023/12/23 08:55:05;;;;;;;2.63;1.40;;;4.70;99.90;;;;;;5094278;28;20460;-76
2023/12/23 08:57:34;;;;;;;5.43;1.70;;;4.70;99.90;;;;;;5093862;28;20420;-76
2023/12/23 09:00:02;;;;;;;4.97;1.63;;;4.70;99.90;;;;;;5093819;28;20515;-76
2023/12/23 09:02:31;;;;;;;2.27;1.43;;;4.70;99.90;;;;;;5092435;28;20459;-76
2023/12/23 09:04:59;;;;;;;3.23;1.77;;;4.70;99.90;;;;;;5092448;28;20902;-76
2023/12/23 09:07:28;;;;;;;3.47;2.27;;;4.70;99.90;;;;;;5092357;28;20831;-76
2023/12/23 09:09:58;;;;;;;4.00;2.27;;;4.70;99.90;;;;;;5093674;28;20425;-76
2023/12/23 09:12:27;;;;;;;3.70;1.90;;;4.70;99.90;;;;;;5092451;28;20891;-76
2023/12/23 09:14:55;;;;;;;4.37;1.70;;;4.70;99.90;;;;;;5092507;28;20462;-76
2023/12/23 09:17:24;;;;;;;2.87;1.33;;;4.80;99.90;;;;;;5092388;28;20497;-76
2023/12/23 09:19:52;;;;;;;2.67;1.80;;;4.80;99.90;;;;;;5092329;28;20442;-76
2023/12/23 09:22:21;;;;;;;2.93;1.50;;;4.80;99.90;;;;;;5093798;28;20469;-76
2023/12/23 09:24:50;;;;;;;3.17;2.20;;;4.80;99.90;;;;;;5092488;28;20494;-75
2023/12/23 09:27:19;;;;;;;4.90;2.57;;;4.80;99.90;;;;;;5092380;28;20472;-76
2023/12/23 09:29:49;;;;;;;3.93;1.97;;;4.80;99.90;;;;;;5093483;28;20428;-76
2023/12/23 09:32:21;;;;;;;4.10;2.13;;;4.90;99.90;;;;;;5092262;28;20441;-76
2023/12/23 09:34:52;;;;;;;4.23;2.30;;;4.90;99.90;;;;;;5092217;28;20452;-76
2023/12/23 09:37:21;;;;;;;4.50;2.60;;;4.90;99.90;;;;;;5092230;28;20444;-76
2023/12/23 09:39:50;;;;;;;4.53;2.70;;;4.90;99.90;;;;;;5092082;28;20444;-76
2023/12/23 09:42:18;;;;;;;4.33;2.37;;;4.90;99.90;;;;;;5092065;28;20441;-76
2023/12/23 09:44:51;;;;;;;2.93;2.07;;;4.80;99.90;;;;;;5092009;28;20436;-76
2023/12/23 09:47:19;;;;;;;4.30;2.20;;;4.90;99.90;;;;;;5092247;28;20468;-76
2023/12/23 09:49:48;;;;;;;2.30;2.10;;;4.90;99.90;;;;;;5091940;28;20444;-75
2023/12/23 09:52:16;;;;;;;3.33;2.00;;;4.90;99.90;;;;;;5091971;28;20452;-77
2023/12/23 09:54:50;;;;;;;3.30;2.27;;;5.00;99.90;;;;;;5093553;28;20846;-76
2023/12/23 09:57:19;;;;;;;3.10;2.13;;;5.00;99.90;;;;;;5093784;28;20494;-76
2023/12/23 09:59:52;;;;;;;4.33;1.70;;;4.90;99.90;;;;;;5091911;28;20494;-76
2023/12/23 10:02:20;;;;;;;2.13;1.63;;;5.00;99.90;;;;;;5092011;28;20451;-76
2023/12/23 10:04:48;;;;;;;2.60;1.73;;;5.00;99.90;;;;;;5092027;28;20479;-76
2023/12/23 10:07:17;;;;;;;3.30;2.00;;;5.00;99.90;;;;;;5094463;28;20468;-76
2023/12/23 10:09:49;;;;;;;3.57;2.30;;;5.00;99.90;;;;;;5097079;28;20424;-76
2023/12/23 10:12:19;;;;;;;2.93;2.00;;;5.00;99.90;;;;;;5095765;28;20440;-76
2023/12/23 10:14:49;;;;;;;4.57;1.80;;;5.00;99.90;;;;;;5097157;28;20436;-76
2023/12/23 10:17:19;;;;;;;4.03;2.10;;;5.00;99.90;;;;;;5095810;28;20448;-76
2023/12/23 10:19:48;;;;;;;3.20;2.10;;;5.00;99.90;;;;;;5095664;28;20956;-76
2023/12/23 10:22:17;;;;;;;4.03;2.20;;;5.00;99.90;;;;;;5095755;28;20451;-76
2023/12/23 10:24:45;;;;;;;2.90;1.70;;;5.00;99.90;;;;;;5095652;28;20438;-76
2023/12/23 10:27:16;;;;;;;3.50;1.60;;;5.00;99.90;;;;;;5095335;28;20472;-76
2023/12/23 10:29:48;;;;;;;2.33;1.63;;;5.10;99.90;;;;;;5095519;28;20468;-75
2023/12/23 10:32:23;;;;;;;2.50;1.80;;;5.10;99.90;;;;;;5095420;28;20892;-76
2023/12/23 10:34:59;;;;;;;3.87;2.40;;;5.10;99.90;;;;;;5095252;28;20443;-76
2023/12/23 10:37:28;;;;;;;3.17;1.93;;;5.10;99.90;;;;;;5096865;28;20516;-76
2023/12/23 10:40:02;;;;;;;3.60;2.63;;;5.10;99.90;;;;;;5095173;28;20444;-75
2023/12/23 10:42:31;;;;;;;1.80;1.57;;;5.10;99.90;;;;;;5095212;28;20454;-76
2023/12/23 10:45:02;;;;;;;2.37;1.60;;;5.20;99.90;;;;;;5096157;28;20986;-76
2023/12/23 10:47:34;;;;;;;6.10;2.40;;;5.10;99.90;;;;;;5095021;28;20491;-75
2023/12/23 10:50:04;;;;;;;2.33;2.00;;;5.20;99.90;;;;;;5096580;28;20516;-76
2023/12/23 10:52:33;;;;;;;2.00;1.57;;;5.20;99.90;;;;;;5098213;28;20444;-78
2023/12/23 10:55:03;;;;;;;3.73;1.40;;;5.20;99.90;;;;;;5101865;28;20461;-80
2023/12/23 10:57:33;;;;;;;1.47;1.17;;;5.20;99.90;;;;;;5102324;28;20437;-79
2023/12/23 11:00:01;;;;;;;2.47;1.50;;;5.20;99.90;;;;;;5104737;28;20503;-81
2023/12/23 11:02:31;;;;;;;2.40;1.20;;;5.20;99.90;;;;;;5105754;28;20442;-80
2023/12/23 11:05:01;;;;;;;2.37;1.53;;;5.20;99.90;;;;;;5102651;28;20520;-79
2023/12/23 11:07:32;;;;;;;1.40;1.00;;;5.20;99.90;;;;;;5101977;28;20463;-80
2023/12/23 11:10:02;;;;;;;1.60;1.50;;;5.20;99.90;;;;;;5102817;28;20446;-80
2023/12/23 11:12:30;;;;;;;2.07;1.50;;;5.20;99.90;;;;;;5105534;28;20475;-79
2023/12/23 11:14:59;;;;;;;1.70;1.30;;;5.30;99.90;;;;;;5103751;28;20983;-78
2023/12/23 11:17:29;;;;;;;1.67;1.40;;;5.30;99.90;;;;;;5103126;28;20501;-80
2023/12/23 11:19:59;;;;;;;1.97;1.47;;;5.30;99.90;;;;;;5100824;28;20466;-81
2023/12/23 11:22:29;;;;;;;2.47;1.57;;;5.30;99.90;;;;;;5102837;28;20451;-79
2023/12/23 11:24:57;;;;;;;1.80;1.40;;;5.30;99.90;;;;;;5106159;28;20998;-78
2023/12/23 11:27:36;;;;;;;2.10;1.80;;;5.40;99.90;;;;;;5106583;28;20521;-80
2023/12/23 11:30:07;;;;;;;2.70;1.70;;;5.40;99.90;;;;;;5105417;28;20472;-80
2023/12/23 11:32:37;;;;;;;1.60;1.37;;;5.40;99.90;;;;;;5104375;28;20438;-79
2023/12/23 11:35:11;;;;;;;2.87;2.03;;;5.40;99.90;;;;;;5105254;28;20440;-79
2023/12/23 11:37:52;;;;;;;1.63;1.20;;;5.40;99.90;;;;;;5107057;28;20412;-79
2023/12/23 11:40:21;;;;;;;1.90;1.30;;;5.50;99.90;;;;;;5105517;28;20454;-80
2023/12/23 11:42:50;;;;;;;2.00;1.20;;;5.50;99.90;;;;;;5108263;28;20440;-80
2023/12/23 11:45:19;;;;;;;1.90;1.33;;;5.50;99.90;;;;;;5108731;28;20495;-79
2023/12/23 11:47:49;;;;;;;1.97;1.30;;;5.50;99.90;;;;;;5104169;28;20882;-80
2023/12/23 11:50:18;;;;;;;1.40;1.07;;;5.50;99.90;;;;;;5103860;28;20444;-79
2023/12/23 11:52:47;;;;;;;1.93;1.53;;;5.50;99.90;;;;;;5104949;28;20464;-79
2023/12/23 11:55:17;;;;;;;2.20;1.60;;;5.50;99.90;;;;;;5103717;28;20983;-79
2023/12/23 11:57:45;;;;;;;1.50;1.30;;;5.50;99.90;;;;;;5106637;28;20789;-79
2023/12/23 12:00:15;;;;;;;2.00;1.30;;;5.60;99.90;;;;;;5105274;28;20933;-80
2023/12/23 12:02:43;;;;;;;2.40;1.73;;;5.60;99.90;;;;;;5105324;28;20473;-79
2023/12/23 12:05:12;;;;;;;2.90;1.60;;;5.60;99.90;;;;;;5103530;28;20444;-79
2023/12/23 12:07:42;;;;;;;1.80;1.23;;;5.60;99.90;;;;;;5104548;28;20456;-79
2023/12/23 12:10:14;;;;;;;2.53;1.40;;;5.60;99.90;;;;;;5104265;28;20441;-79
2023/12/23 12:12:42;;;;;;;1.60;1.40;;;5.60;99.90;;;;;;5104425;28;20440;-80
2023/12/23 12:15:11;;;;;;;1.60;1.30;;;5.60;99.90;;;;;;5109746;28;20480;-80
2023/12/23 12:17:40;;;;;;;2.13;1.40;;;5.60;99.90;;;;;;5109474;28;20450;-79
2023/12/23 12:20:09;;;;;;;1.90;1.33;;;5.60;99.90;;;;;;5108170;28;20468;-79
2023/12/23 12:22:44;;;;;;;1.90;1.53;;;5.60;99.90;;;;;;5109452;28;20447;-80
2023/12/23 12:25:15;;;;;;;2.33;1.67;;;5.70;99.90;;;;;;5107900;28;20464;-79
2023/12/23 12:27:44;;;;;;;2.60;1.83;;;5.60;99.90;;;;;;5106703;28;20976;-80
2023/12/23 12:30:13;;;;;;;1.60;1.47;;;5.60;99.90;;;;;;5106280;28;20821;-79
2023/12/23 12:32:45;;;;;;;1.80;1.40;;;5.70;99.90;;;;;;5106376;28;20511;-79
2023/12/23 12:35:15;;;;;;;2.13;1.57;;;5.60;99.90;;;;;;5107741;28;20482;-80
2023/12/23 12:37:44;;;;;;;2.57;1.80;;;5.60;99.90;;;;;;5105688;28;20456;-81
2023/12/23 12:40:14;;;;;;;1.93;1.63;;;5.70;99.90;;;;;;5105254;28;20453;-80
2023/12/23 12:42:46;;;;;;;2.20;1.80;;;5.70;99.90;;;;;;5105105;28;20446;-80
2023/12/23 12:45:15;;;;;;;2.47;1.80;;;5.70;99.90;;;;;;5106183;28;20597;-79
2023/12/23 12:47:44;;;;;;;2.20;2.00;;;5.70;99.90;;;;;;5106457;28;20421;-79
2023/12/23 12:50:13;;;;;;;1.93;1.73;;;5.70;99.90;;;;;;5106142;28;20476;-80
2023/12/23 12:52:41;;;;;;;2.40;2.20;;;5.70;99.90;;;;;;5105791;28;20910;-80
2023/12/23 12:55:11;;;;;;;2.13;1.93;;;5.70;99.90;;;;;;5105545;28;20953;-79
2023/12/23 12:57:40;;;;;;;2.67;2.47;;;5.80;99.90;;;;;;5104516;28;20450;-80
2023/12/23 13:00:09;;;;;;;3.03;2.73;;;5.80;99.90;;;;;;5103685;28;20468;-80
2023/12/23 13:02:38;;;;;;;2.73;2.53;;;5.80;99.90;;;;;;5103937;28;20474;-80
2023/12/23 13:05:07;;;;;;;2.70;2.50;;;5.80;99.90;;;;;;5104920;28;20945;-79